Time;durP1;ratioP1;P1;durP2;ratioP2;P2;SDS_P1;SDS_P2;PMS_P1;PMS_P2;Temp;Humidity;BMP_temperature;BMP_pressure;BME280_temperature;BME280_humidity;BME280_pressure;Samples;Min_cycle;Max_cycle;Signal;HPM_P1;HPM_P2
2022/03/04 00:02:11;;;;;;;;;;;0.80;80.20;;;;;;5062045;28;20238;-68
2022/03/04 00:04:37;;;;;;;;;;;0.80;80.40;;;;;;5044498;28;19979;-69
2022/03/04 00:07:04;;;;;;;;;;;0.80;80.40;;;;;;5062382;28;19908;-68
2022/03/04 00:09:30;;;;;;;;;;;0.80;80.70;;;;;;5061283;28;19909;-68
2022/03/04 00:11:56;;;;;;;;;;;0.80;80.50;;;;;;5060821;28;19942;-68
2022/03/04 00:14:22;;;;;;;;;;;0.80;80.80;;;;;;5061307;28;19949;-69
2022/03/04 00:16:47;;;;;;;;;;;0.80;80.90;;;;;;5061149;28;20108;-68
2022/03/04 00:19:13;;;;;;;;;;;0.70;81.10;;;;;;5061217;28;19943;-68
2022/03/04 00:21:39;;;;;;;;;;;0.70;81.20;;;;;;5061661;28;19909;-68
2022/03/04 00:24:06;;;;;;;;;;;0.60;81.20;;;;;;5062262;28;19931;-68
2022/03/04 00:26:32;;;;;;;;;;;0.50;81.90;;;;;;5044741;28;19915;-69
2022/03/04 00:28:57;;;;;;;;;;;0.40;82.00;;;;;;5066171;28;19917;-69
2022/03/04 00:31:24;;;;;;;;;;;0.40;82.40;;;;;;5065780;28;20038;-70
2022/03/04 00:33:49;;;;;;;;;;;0.30;82.40;;;;;;5048585;28;19908;-71
2022/03/04 00:36:15;;;;;;;;;;;0.40;82.60;;;;;;5048176;28;19966;-71
2022/03/04 00:38:41;;;;;;;;;;;0.30;83.20;;;;;;5065015;28;19908;-71
2022/03/04 00:41:06;;;;;;;;;;;0.30;83.00;;;;;;5065824;28;19921;-68
2022/03/04 00:43:32;;;;;;;;;;;0.30;83.20;;;;;;5065922;28;20043;-68
2022/03/04 00:45:58;;;;;;;;;;;0.20;83.30;;;;;;5065959;28;19954;-68
2022/03/04 00:48:23;;;;;;;;;;;0.20;83.50;;;;;;5065976;28;19917;-67
2022/03/04 00:50:49;;;;;;;;;;;0.20;83.80;;;;;;5064690;28;20150;-68
2022/03/04 00:53:15;;;;;;;;;;;0.10;83.70;;;;;;5065863;28;19908;-68
2022/03/04 00:55:40;;;;;;;;;;;0.10;83.50;;;;;;5065781;28;20127;-68
2022/03/04 00:58:06;;;;;;;;;;;0.10;83.60;;;;;;5065740;28;19998;-68
2022/03/04 01:00:33;;;;;;;;;;;0.10;84.10;;;;;;5064430;28;19917;-68
2022/03/04 01:03:00;;;;;;;;;;;0.00;84.50;;;;;;5064511;28;19913;-68
2022/03/04 01:05:25;;;;;;;;;;;0.00;84.40;;;;;;5065440;28;19980;-68
2022/03/04 01:07:51;;;;;;;;;;;0.00;84.50;;;;;;5065637;28;19916;-69
2022/03/04 01:10:17;;;;;;;;;;;0.00;85.10;;;;;;5047692;28;19931;-69
2022/03/04 01:12:42;;;;;;;;;;;0.00;85.20;;;;;;5065108;28;19955;-68
2022/03/04 01:15:09;;;;;;;;;;;-0.10;85.30;;;;;;5063392;28;19909;-68
2022/03/04 01:17:35;;;;;;;;;;;-0.10;85.30;;;;;;5065464;28;20115;-69
2022/03/04 01:20:02;;;;;;;;;;;-0.30;85.60;;;;;;5065060;28;19909;-69
2022/03/04 01:22:28;;;;;;;;;;;-0.30;86.00;;;;;;5065143;28;19916;-69
2022/03/04 01:24:53;;;;;;;;;;;-0.40;86.00;;;;;;5064155;28;20053;-69
2022/03/04 01:27:19;;;;;;;;;;;-0.30;86.10;;;;;;5065193;28;19909;-69
2022/03/04 01:29:45;;;;;;;;;;;-0.40;86.40;;;;;;5065043;28;19980;-69
2022/03/04 01:32:11;;;;;;;;;;;-0.40;86.50;;;;;;5063743;28;19946;-69
2022/03/04 01:34:37;;;;;;;;;;;-0.50;86.80;;;;;;5065003;28;19917;-69
2022/03/04 01:37:03;;;;;;;;;;;-0.50;87.10;;;;;;5064794;28;19909;-69
2022/03/04 01:39:29;;;;;;;;;;;-0.50;86.90;;;;;;5064814;28;19975;-69
2022/03/04 01:41:55;;;;;;;;;;;-0.60;87.30;;;;;;5064484;28;19951;-69
2022/03/04 01:44:21;;;;;;;;;;;-0.60;87.20;;;;;;5064832;28;20015;-69
2022/03/04 01:46:46;;;;;;;;;;;-0.60;87.50;;;;;;5063746;28;19916;-68
2022/03/04 01:49:13;;;;;;;;;;;-0.70;87.80;;;;;;5064377;28;19916;-70
2022/03/04 01:51:38;;;;;;;;;;;-0.60;87.60;;;;;;5044106;28;19913;-70
2022/03/04 01:54:04;;;;;;;;;;;-0.70;88.10;;;;;;5043667;28;19909;-70
2022/03/04 01:56:30;;;;;;;;;;;-0.80;88.40;;;;;;5043551;28;19909;-70
2022/03/04 01:58:55;;;;;;;;;;;-0.80;88.50;;;;;;5053885;28;19908;-69
2022/03/04 02:01:21;;;;;;;;;;;-0.80;88.50;;;;;;5064236;28;20115;-69
2022/03/04 02:03:47;;;;;;;;;;;-0.80;88.70;;;;;;5064504;28;19921;-70
2022/03/04 02:06:13;;;;;;;;;;;-0.90;88.60;;;;;;5064156;28;19909;-69
2022/03/04 02:08:38;;;;;;;;;;;-0.80;88.50;;;;;;5064415;28;19909;-69
2022/03/04 02:11:04;;;;;;;;;;;-0.90;88.70;;;;;;5063826;28;19916;-70
2022/03/04 02:13:31;;;;;;;;;;;-0.90;89.00;;;;;;5064369;28;20107;-68
2022/03/04 02:15:56;;;;;;;;;;;-0.90;88.70;;;;;;5046415;28;19908;-68
2022/03/04 02:18:22;;;;;;;;;;;-1.00;88.90;;;;;;5046441;28;19917;-69
2022/03/04 02:20:49;;;;;;;;;;;-1.00;89.20;;;;;;5063612;28;19916;-68
2022/03/04 02:23:15;;;;;;;;;;;-1.10;89.60;;;;;;5063123;28;20018;-68
2022/03/04 02:25:44;;;;;;;;;;;-1.20;89.90;;;;;;5064092;28;20178;-68
2022/03/04 02:28:10;;;;;;;;;;;-1.20;90.00;;;;;;5064010;28;19909;-69
2022/03/04 02:30:36;;;;;;;;;;;-1.10;90.10;;;;;;5062548;28;19980;-69
2022/03/04 02:33:04;;;;;;;;;;;-1.20;90.20;;;;;;5063860;28;19963;-69
2022/03/04 02:35:30;;;;;;;;;;;-1.20;90.20;;;;;;5063788;28;19909;-70
2022/03/04 02:37:56;;;;;;;;;;;-1.20;90.20;;;;;;5082170;22;19968;-73
2022/03/04 02:40:22;;;;;;;;;;;-1.20;90.50;;;;;;5036942;28;19962;-73
2022/03/04 02:42:47;;;;;;;;;;;-1.20;90.40;;;;;;5063394;28;19921;-74
2022/03/04 02:45:13;;;;;;;;;;;-1.30;90.40;;;;;;5062475;28;19951;-73
2022/03/04 02:47:39;;;;;;;;;;;-1.30;90.50;;;;;;5063490;28;19908;-78
2022/03/04 02:50:05;;;;;;;;;;;-1.20;90.60;;;;;;5062019;28;19940;-73
2022/03/04 02:52:31;;;;;;;;;;;-1.30;90.70;;;;;;5061731;28;19916;-74
2022/03/04 02:54:56;;;;;;;;;;;-1.40;90.70;;;;;;5063674;28;19908;-76
2022/03/04 02:57:22;;;;;;;;;;;-1.30;90.70;;;;;;5062629;28;19916;-75
2022/03/04 02:59:48;;;;;;;;;;;-1.30;90.80;;;;;;5063553;28;19969;-77
2022/03/04 03:02:13;;;;;;;;;;;-1.40;90.90;;;;;;5062993;28;19985;-73
2022/03/04 03:04:39;;;;;;;;;;;-1.40;90.90;;;;;;5063483;28;19909;-74
2022/03/04 03:07:05;;;;;;;;;;;-1.40;90.90;;;;;;5063024;28;20203;-73
2022/03/04 03:09:30;;;;;;;;;;;-1.30;90.70;;;;;;5063138;28;19967;-73
2022/03/04 03:11:56;;;;;;;;;;;-1.40;90.70;;;;;;5045635;28;19919;-72
2022/03/04 03:14:22;;;;;;;;;;;-1.50;91.00;;;;;;5045889;28;19913;-72
2022/03/04 03:16:47;;;;;;;;;;;-1.50;91.00;;;;;;5063522;28;19916;-72
2022/03/04 03:19:13;;;;;;;;;;;-1.50;91.20;;;;;;5045600;28;19951;-72
2022/03/04 03:21:39;;;;;;;;;;;-1.60;91.20;;;;;;5028633;28;19916;-72
2022/03/04 03:24:05;;;;;;;;;;;-1.60;91.30;;;;;;5063370;28;20114;-73
2022/03/04 03:26:31;;;;;;;;;;;-1.60;91.40;;;;;;5045617;28;19909;-72
2022/03/04 03:28:56;;;;;;;;;;;-1.50;91.30;;;;;;5063394;28;20186;-73
2022/03/04 03:31:22;;;;;;;;;;;-1.60;91.50;;;;;;5062753;28;19940;-75
2022/03/04 03:33:47;;;;;;;;;;;-1.70;91.30;;;;;;5044977;28;19923;-75
2022/03/04 03:36:13;;;;;;;;;;;-1.70;91.40;;;;;;5062696;28;20123;-74
2022/03/04 03:38:39;;;;;;;;;;;-1.70;91.40;;;;;;5062622;28;19913;-73
2022/03/04 03:41:05;;;;;;;;;;;-1.80;91.40;;;;;;5044797;28;19975;-74
2022/03/04 03:43:30;;;;;;;;;;;-1.70;91.30;;;;;;5062584;28;19916;-74
2022/03/04 03:45:56;;;;;;;;;;;-1.70;91.10;;;;;;5044838;28;19908;-77
2022/03/04 03:48:22;;;;;;;;;;;-1.70;91.20;;;;;;5028388;28;19912;-78
2022/03/04 03:50:47;;;;;;;;;;;-1.70;91.30;;;;;;5027079;28;19921;-77
2022/03/04 03:53:13;;;;;;;;;;;-1.70;91.30;;;;;;5044973;28;19984;-76
2022/03/04 03:55:39;;;;;;;;;;;-1.60;91.20;;;;;;5044808;28;19909;-76
2022/03/04 03:58:05;;;;;;;;;;;-1.60;91.30;;;;;;5045430;28;20204;-75
2022/03/04 04:00:31;;;;;;;;;;;-1.70;91.20;;;;;;5062497;28;19909;-77
2022/03/04 04:02:56;;;;;;;;;;;-1.70;91.20;;;;;;5043266;28;19909;-74
2022/03/04 04:05:22;;;;;;;;;;;-1.60;91.20;;;;;;5062178;28;19916;-73
2022/03/04 04:07:48;;;;;;;;;;;-1.60;91.20;;;;;;5044549;28;19917;-75
2022/03/04 04:10:14;;;;;;;;;;;-1.60;91.20;;;;;;5044213;28;20410;-74
2022/03/04 04:12:39;;;;;;;;;;;-1.60;91.20;;;;;;5077738;28;19940;-75
2022/03/04 04:15:06;;;;;;;;;;;-1.60;91.30;;;;;;5069280;28;19944;-76
2022/03/04 04:17:31;;;;;;;;;;;-1.60;91.20;;;;;;5060902;28;19917;-74
2022/03/04 04:19:57;;;;;;;;;;;-1.60;91.30;;;;;;5060283;28;19917;-74
2022/03/04 04:22:23;;;;;;;;;;;-1.60;91.70;;;;;;5039586;28;19913;-76
2022/03/04 04:24:48;;;;;;;;;;;-1.60;91.40;;;;;;5061991;28;19948;-77
2022/03/04 04:27:14;;;;;;;;;;;-1.50;91.30;;;;;;5044259;28;19932;-76
2022/03/04 04:29:40;;;;;;;;;;;-1.50;91.40;;;;;;5060987;28;19955;-73
2022/03/04 04:32:06;;;;;;;;;;;-1.50;91.50;;;;;;5049588;28;20145;-73
2022/03/04 04:34:31;;;;;;;;;;;-1.60;91.50;;;;;;5052082;28;19924;-73
2022/03/04 04:36:57;;;;;;;;;;;-1.60;91.50;;;;;;5055714;28;19916;-73
2022/03/04 04:39:23;;;;;;;;;;;-1.60;91.60;;;;;;5061314;28;19908;-73
2022/03/04 04:41:49;;;;;;;;;;;-1.60;91.60;;;;;;5061221;28;19999;-73
2022/03/04 04:44:15;;;;;;;;;;;-1.60;91.60;;;;;;5061519;28;19924;-73
2022/03/04 04:46:40;;;;;;;;;;;-1.50;91.60;;;;;;5061516;28;19908;-73
2022/03/04 04:49:06;;;;;;;;;;;-1.50;91.50;;;;;;5062113;28;19916;-75
2022/03/04 04:51:32;;;;;;;;;;;-1.50;91.80;;;;;;5060320;28;19913;-75
2022/03/04 04:53:57;;;;;;;;;;;-1.50;91.50;;;;;;5060859;28;20226;-76
2022/03/04 04:56:23;;;;;;;;;;;-1.50;91.60;;;;;;5061093;28;19974;-75
2022/03/04 04:58:49;;;;;;;;;;;-1.60;91.60;;;;;;5060872;28;20257;-75
2022/03/04 05:01:15;;;;;;;;;;;-1.60;91.60;;;;;;5042818;28;19975;-75
2022/03/04 05:03:41;;;;;;;;;;;-1.50;91.60;;;;;;5044286;28;19916;-75
2022/03/04 05:06:06;;;;;;;;;;;-1.60;91.60;;;;;;5061750;28;19920;-75
2022/03/04 05:08:33;;;;;;;;;;;-1.50;91.50;;;;;;5061708;28;19924;-75
2022/03/04 05:11:00;;;;;;;;;;;-1.50;91.40;;;;;;5044055;28;19919;-74
2022/03/04 05:13:25;;;;;;;;;;;-1.50;91.40;;;;;;5063249;28;20015;-75
2022/03/04 05:15:51;;;;;;;;;;;-1.40;91.50;;;;;;5047728;28;19913;-75
2022/03/04 05:18:17;;;;;;;;;;;-1.50;91.70;;;;;;5047676;28;19936;-75
2022/03/04 05:20:43;;;;;;;;;;;-1.40;91.70;;;;;;5047117;28;19944;-76
2022/03/04 05:23:09;;;;;;;;;;;-1.50;91.80;;;;;;5047716;28;19916;-74
2022/03/04 05:25:34;;;;;;;;;;;-1.50;91.80;;;;;;5031181;28;19976;-75
2022/03/04 05:28:00;;;;;;;;;;;-1.50;92.00;;;;;;5065178;28;20007;-73
2022/03/04 05:30:26;;;;;;;;;;;-1.50;92.00;;;;;;5047107;28;19927;-74
2022/03/04 05:32:52;;;;;;;;;;;-1.50;92.10;;;;;;5062612;28;19912;-75
2022/03/04 05:35:17;;;;;;;;;;;-1.50;92.10;;;;;;5047031;28;19917;-75
2022/03/04 05:37:43;;;;;;;;;;;-1.60;92.10;;;;;;5030604;28;20112;-75
2022/03/04 05:40:09;;;;;;;;;;;-1.60;92.40;;;;;;5046912;28;19919;-76
2022/03/04 05:42:35;;;;;;;;;;;-1.60;92.40;;;;;;5030296;28;19921;-81
2022/03/04 05:45:01;;;;;;;;;;;-1.60;92.30;;;;;;5063763;28;19962;-77
2022/03/04 05:47:26;;;;;;;;;;;-1.60;92.40;;;;;;5066928;28;19909;-78
2022/03/04 05:49:52;;;;;;;;;;;-1.60;92.50;;;;;;5046191;28;19917;-78
2022/03/04 05:52:18;;;;;;;;;;;-1.60;92.50;;;;;;5046543;28;19980;-78
2022/03/04 05:54:44;;;;;;;;;;;-1.70;92.60;;;;;;5047036;28;19938;-78
2022/03/04 05:57:09;;;;;;;;;;;-1.60;92.60;;;;;;5050757;28;19944;-79
2022/03/04 05:59:35;;;;;;;;;;;-1.60;92.70;;;;;;5063231;28;20007;-78
2022/03/04 06:02:01;;;;;;;;;;;-1.60;92.60;;;;;;5053875;28;19919;-79
2022/03/04 06:04:26;;;;;;;;;;;-1.60;92.60;;;;;;5027880;28;19913;-80
2022/03/04 06:06:52;;;;;;;;;;;-1.50;92.50;;;;;;5047244;28;20240;-77
2022/03/04 06:09:18;;;;;;;;;;;-1.50;92.50;;;;;;5029696;28;19915;-79
2022/03/04 06:11:45;;;;;;;;;;;-1.50;92.60;;;;;;5046258;28;20040;-81
2022/03/04 06:14:10;;;;;;;;;;;-1.50;92.70;;;;;;5052094;28;20089;-80
2022/03/04 06:16:36;;;;;;;;;;;-1.50;92.80;;;;;;5031310;28;19970;-77
2022/03/04 06:19:02;;;;;;;;;;;-1.50;92.70;;;;;;5043296;28;19921;-77
2022/03/04 06:21:27;;;;;;;;;;;-1.50;92.70;;;;;;5059832;28;19917;-77
2022/03/04 06:23:53;;;;;;;;;;;-1.50;92.70;;;;;;5062577;28;19912;-77
2022/03/04 06:26:20;;;;;;;;;;;-1.40;92.70;;;;;;5062349;28;19941;-77
2022/03/04 06:28:46;;;;;;;;;;;-1.40;92.80;;;;;;5063045;28;19912;-77
2022/03/04 06:31:11;;;;;;;;;;;-1.40;92.70;;;;;;5061743;28;19950;-77
2022/03/04 06:33:39;;;;;;;;;;;-1.40;92.80;;;;;;5029739;28;19920;-76
2022/03/04 06:36:06;;;;;;;;;;;-1.30;92.80;;;;;;5045987;28;19908;-77
2022/03/04 06:38:33;;;;;;;;;;;-1.20;92.60;;;;;;5045857;28;20111;-77
2022/03/04 06:40:58;;;;;;;;;;;-1.20;92.50;;;;;;5045668;28;20258;-77
2022/03/04 06:43:24;;;;;;;;;;;-1.20;92.50;;;;;;5045766;28;19913;-77
2022/03/04 06:45:50;;;;;;;;;;;-1.10;92.30;;;;;;5029485;28;19908;-77
2022/03/04 06:48:18;;;;;;;;;;;-1.10;92.40;;;;;;5029301;28;20262;-77
2022/03/04 06:50:44;;;;;;;;;;;-1.10;92.30;;;;;;5045594;28;19940;-77
2022/03/04 06:53:09;;;;;;;;;;;-1.10;92.30;;;;;;5029407;28;20107;-77
2022/03/04 06:55:35;;;;;;;;;;;-1.00;92.30;;;;;;5029089;28;19951;-77
2022/03/04 06:58:01;;;;;;;;;;;-0.90;92.20;;;;;;5042388;28;19915;-77
2022/03/04 07:00:27;;;;;;;;;;;-0.80;92.10;;;;;;5036978;28;19915;-77
2022/03/04 07:02:53;;;;;;;;;;;-0.70;91.90;;;;;;5058869;28;19917;-77
2022/03/04 07:05:21;;;;;;;;;;;-0.60;91.80;;;;;;5078765;28;19915;-77
2022/03/04 07:07:50;;;;;;;;;;;-0.60;91.70;;;;;;5062881;28;19921;-77
2022/03/04 07:10:15;;;;;;;;;;;-0.60;91.70;;;;;;5061932;28;20035;-77
2022/03/04 07:12:41;;;;;;;;;;;-0.60;91.80;;;;;;5045250;28;19908;-77
2022/03/04 07:15:07;;;;;;;;;;;-0.60;91.80;;;;;;5078457;28;19915;-77
2022/03/04 07:17:33;;;;;;;;;;;-0.50;91.80;;;;;;5045417;28;20196;-77
2022/03/04 07:19:59;;;;;;;;;;;-0.50;91.70;;;;;;5061902;28;19919;-77
2022/03/04 07:22:25;;;;;;;;;;;-0.40;91.80;;;;;;5062483;28;20022;-77
2022/03/04 07:24:50;;;;;;;;;;;-0.40;91.70;;;;;;5062940;28;20148;-77
2022/03/04 07:27:16;;;;;;;;;;;-0.30;91.60;;;;;;5062876;28;19947;-78
2022/03/04 07:29:42;;;;;;;;;;;-0.20;91.60;;;;;;5078379;28;19916;-76
2022/03/04 07:32:07;;;;;;;;;;;-0.10;91.50;;;;;;5062293;28;19921;-79
2022/03/04 07:34:34;;;;;;;;;;;0.00;91.30;;;;;;5045073;28;19913;-79
2022/03/04 07:36:59;;;;;;;;;;;0.00;91.10;;;;;;5027730;28;19959;-78
2022/03/04 07:39:25;;;;;;;;;;;0.00;91.10;;;;;;5062896;28;19908;-79
2022/03/04 07:41:51;;;;;;;;;;;0.00;91.10;;;;;;5028534;28;19908;-78
2022/03/04 07:44:18;;;;;;;;;;;0.10;90.90;;;;;;5062792;28;20122;-79
2022/03/04 07:46:43;;;;;;;;;;;0.20;90.90;;;;;;5028783;28;19909;-79
2022/03/04 07:49:09;;;;;;;;;;;0.20;91.00;;;;;;5044953;28;19908;-79
2022/03/04 07:51:35;;;;;;;;;;;0.20;91.00;;;;;;5061477;28;19956;-79
2022/03/04 07:54:01;;;;;;;;;;;0.30;91.00;;;;;;5044747;28;19908;-79
2022/03/04 07:56:26;;;;;;;;;;;0.30;90.80;;;;;;5044740;28;19909;-79
2022/03/04 07:58:52;;;;;;;;;;;0.40;90.70;;;;;;5044775;28;20132;-79
2022/03/04 08:01:18;;;;;;;;;;;0.40;90.60;;;;;;5028179;28;20204;-77
2022/03/04 08:03:44;;;;;;;;;;;0.50;90.60;;;;;;5044957;28;19909;-77
2022/03/04 08:06:09;;;;;;;;;;;0.50;90.40;;;;;;5028539;28;19909;-77
2022/03/04 08:08:35;;;;;;;;;;;0.60;90.20;;;;;;5044577;28;19909;-77
2022/03/04 08:11:01;;;;;;;;;;;0.60;90.20;;;;;;5044443;28;19912;-77
2022/03/04 08:13:27;;;;;;;;;;;0.70;90.30;;;;;;5044826;28;19908;-77
2022/03/04 08:15:53;;;;;;;;;;;0.80;90.10;;;;;;5044994;28;19924;-77
2022/03/04 08:18:18;;;;;;;;;;;0.80;89.90;;;;;;5062492;28;19909;-77
2022/03/04 08:20:44;;;;;;;;;;;0.90;90.00;;;;;;5056377;28;19971;-75
2022/03/04 08:23:11;;;;;;;;;;;1.00;90.00;;;;;;5047723;28;19916;-77
2022/03/04 08:25:40;;;;;;;;;;;1.00;90.10;;;;;;5008842;28;19913;-76
2022/03/04 08:28:06;;;;;;;;;;;1.20;89.50;;;;;;5042180;28;19913;-71
2022/03/04 08:30:32;;;;;;;;;;;1.20;89.50;;;;;;5024758;28;20048;-71
2022/03/04 08:32:58;;;;;;;;;;;1.20;89.40;;;;;;5042094;28;20266;-69
2022/03/04 08:35:23;;;;;;;;;;;1.30;89.40;;;;;;5041767;28;19975;-73
2022/03/04 08:37:49;;;;;;;;;;;1.30;89.10;;;;;;5040601;28;19913;-72
2022/03/04 08:40:15;;;;;;;;;;;1.30;89.30;;;;;;5042180;28;19909;-70
2022/03/04 08:42:42;;;;;;;;;;;1.30;89.20;;;;;;5041986;28;20054;-71
2022/03/04 08:45:09;;;;;;;;;;;1.40;89.10;;;;;;5042120;28;20140;-70
2022/03/04 08:47:35;;;;;;;;;;;1.50;88.50;;;;;;5042137;28;19943;-75
2022/03/04 08:50:00;;;;;;;;;;;1.60;88.00;;;;;;5048432;28;19909;-76
2022/03/04 08:52:26;;;;;;;;;;;1.70;88.20;;;;;;5055801;28;19932;-76
2022/03/04 08:54:52;;;;;;;;;;;1.70;87.50;;;;;;5028413;28;20444;-77
2022/03/04 08:57:17;;;;;;;;;;;1.80;87.20;;;;;;5045664;28;19963;-73
2022/03/04 08:59:43;;;;;;;;;;;1.80;87.60;;;;;;5027938;28;19909;-74
2022/03/04 09:02:09;;;;;;;;;;;1.90;86.90;;;;;;5011363;28;20145;-74
2022/03/04 09:04:35;;;;;;;;;;;1.90;86.20;;;;;;5011747;28;19917;-72
2022/03/04 09:07:02;;;;;;;;;;;2.00;86.10;;;;;;5044717;28;19913;-73
2022/03/04 09:09:28;;;;;;;;;;;2.00;86.20;;;;;;5045403;28;19917;-76
2022/03/04 09:11:54;;;;;;;;;;;2.10;86.50;;;;;;5027207;28;19920;-76
2022/03/04 09:14:23;;;;;;;;;;;2.10;86.20;;;;;;5011083;28;20200;-76
2022/03/04 09:16:49;;;;;;;;;;;2.20;86.30;;;;;;5012297;28;19916;-70
2022/03/04 09:19:15;;;;;;;;;;;2.20;85.00;;;;;;5044639;28;19917;-71
2022/03/04 09:21:41;;;;;;;;;;;2.30;85.70;;;;;;5049050;28;19980;-74
2022/03/04 09:24:07;;;;;;;;;;;2.50;84.90;;;;;;5053340;28;19909;-73
2022/03/04 09:26:33;;;;;;;;;;;2.50;84.50;;;;;;5027818;28;19959;-73
2022/03/04 09:28:59;;;;;;;;;;;2.70;84.20;;;;;;5027556;28;19909;-73
2022/03/04 09:31:24;;;;;;;;;;;2.80;83.60;;;;;;5044855;28;19913;-72
2022/03/04 09:33:50;;;;;;;;;;;2.80;82.90;;;;;;5011358;28;19917;-72
2022/03/04 09:36:16;;;;;;;;;;;2.80;83.10;;;;;;5044759;28;19909;-72
2022/03/04 09:38:42;;;;;;;;;;;3.00;83.90;;;;;;5040675;28;20115;-73
2022/03/04 09:41:08;;;;;;;;;;;3.20;83.80;;;;;;5030547;28;19917;-73
2022/03/04 09:43:34;;;;;;;;;;;3.30;82.00;;;;;;5047336;28;19968;-73
2022/03/04 09:46:00;;;;;;;;;;;3.20;81.30;;;;;;5047265;28;19916;-73
2022/03/04 09:48:25;;;;;;;;;;;3.30;81.00;;;;;;5064766;28;20112;-73
2022/03/04 09:50:51;;;;;;;;;;;3.40;81.20;;;;;;5030764;28;20258;-73
2022/03/04 09:53:17;;;;;;;;;;;3.70;79.80;;;;;;5064167;28;19916;-73
2022/03/04 09:55:43;;;;;;;;;;;4.00;78.20;;;;;;5047143;28;19917;-74
2022/03/04 09:58:16;;;;;;;;;;;4.10;77.90;;;;;;5064534;28;19982;-73
2022/03/04 10:00:43;;;;;;;;;;;4.10;77.50;;;;;;5046529;28;19908;-73
2022/03/04 10:03:22;;;;;;;;;;;4.10;76.70;;;;;;5064452;28;19915;-71
2022/03/04 10:05:54;;;;;;;;;;;4.20;78.80;;;;;;5064705;28;20223;-70
2022/03/04 10:08:20;;;;;;;;;;;4.30;78.30;;;;;;5055920;28;20223;-73
2022/03/04 10:10:56;;;;;;;;;;;4.50;77.40;;;;;;5026022;28;19928;-70
2022/03/04 10:13:52;;;;;;;;;;;4.70;75.60;;;;;;5064864;28;19962;-71
2022/03/04 10:16:27;;;;;;;;;;;4.80;75.40;;;;;;5031275;28;19917;-70
2022/03/04 10:19:10;;;;;;;;;;;4.90;74.70;;;;;;5047343;28;19920;-70
2022/03/04 10:21:56;;;;;;;;;;;5.00;74.70;;;;;;5064701;28;19977;-71
2022/03/04 10:24:23;;;;;;;;;;;5.10;73.40;;;;;;5063512;28;19915;-70
2022/03/04 10:27:04;;;;;;;;;;;5.50;73.30;;;;;;5046734;28;19980;-70
2022/03/04 10:29:31;;;;;;;;;;;5.50;70.00;;;;;;5046998;28;20143;-71
2022/03/04 10:32:19;;;;;;;;;;;5.80;69.00;;;;;;5046734;28;19913;-71
2022/03/04 10:34:44;;;;;;;;;;;6.00;69.50;;;;;;5064795;28;19951;-71
2022/03/04 10:37:11;;;;;;;;;;;6.20;69.10;;;;;;5064902;28;20289;-73
2022/03/04 10:39:36;;;;;;;;;;;6.30;63.80;;;;;;5046411;28;19976;-73
2022/03/04 10:42:02;;;;;;;;;;;6.50;60.70;;;;;;5064417;28;19917;-70
2022/03/04 10:44:29;;;;;;;;;;;6.60;62.80;;;;;;5046919;28;19932;-70
2022/03/04 10:46:56;;;;;;;;;;;6.80;62.10;;;;;;5064346;28;19909;-70
2022/03/04 10:49:25;;;;;;;;;;;7.00;60.10;;;;;;5046138;28;19917;-70
2022/03/04 10:51:51;;;;;;;;;;;7.30;59.90;;;;;;5063185;28;19913;-71
2022/03/04 10:54:18;;;;;;;;;;;7.50;55.40;;;;;;5028642;28;19916;-71
2022/03/04 10:57:03;;;;;;;;;;;7.60;56.40;;;;;;5045484;28;19966;-71
2022/03/04 10:59:28;;;;;;;;;;;7.80;54.30;;;;;;5062521;28;19915;-71
2022/03/04 11:01:57;;;;;;;;;;;7.90;54.10;;;;;;5062914;28;19909;-71
2022/03/04 11:04:23;;;;;;;;;;;8.20;54.30;;;;;;5063434;28;19970;-70
2022/03/04 11:06:49;;;;;;;;;;;8.40;50.50;;;;;;5063439;28;19912;-71
2022/03/04 11:09:16;;;;;;;;;;;8.70;49.90;;;;;;5062587;28;19947;-71
2022/03/04 11:11:43;;;;;;;;;;;8.80;49.80;;;;;;5078566;28;20267;-70
2022/03/04 11:14:12;;;;;;;;;;;8.80;48.20;;;;;;5063098;28;20242;-70
2022/03/04 11:16:38;;;;;;;;;;;9.10;48.60;;;;;;5078711;28;19963;-70
2022/03/04 11:19:08;;;;;;;;;;;9.30;47.20;;;;;;5062994;28;20115;-69
2022/03/04 11:21:34;;;;;;;;;;;9.70;45.60;;;;;;5060373;28;19909;-70
2022/03/04 11:23:59;;;;;;;;;;;10.00;45.20;;;;;;5060724;28;19976;-73
2022/03/04 11:26:25;;;;;;;;;;;10.90;43.90;;;;;;5061624;28;19989;-70
2022/03/04 11:28:54;;;;;;;;;;;11.30;41.90;;;;;;5043833;28;20223;-71
2022/03/04 11:31:21;;;;;;;;;;;12.20;39.60;;;;;;5061446;28;19913;-72
2022/03/04 11:33:57;;;;;;;;;;;13.50;36.30;;;;;;5061793;28;20115;-71
2022/03/04 11:36:34;;;;;;;;;;;14.50;34.40;;;;;;5061767;28;19954;-70
2022/03/04 11:39:02;;;;;;;;;;;15.60;33.50;;;;;;5061361;28;19987;-70
2022/03/04 11:41:30;;;;;;;;;;;16.60;30.80;;;;;;5061156;28;19938;-71
2022/03/04 11:44:18;;;;;;;;;;;17.60;30.40;;;;;;5061529;28;20192;-72
2022/03/04 11:46:56;;;;;;;;;;;18.70;28.80;;;;;;5061638;28;19932;-71
2022/03/04 11:49:38;;;;;;;;;;;19.80;27.10;;;;;;5061453;28;19946;-71
2022/03/04 11:52:10;;;;;;;;;;;20.10;27.00;;;;;;5045288;28;19928;-71
2022/03/04 11:54:40;;;;;;;;;;;21.20;26.30;;;;;;5060255;28;19963;-71
2022/03/04 11:57:24;;;;;;;;;;;21.70;25.80;;;;;;5061508;28;19912;-71
2022/03/04 11:59:56;;;;;;;;;;;23.30;25.00;;;;;;5061844;28;19932;-71
2022/03/04 12:02:47;;;;;;;;;;;24.20;23.60;;;;;;5043586;28;19909;-71
2022/03/04 12:05:12;;;;;;;;;;;24.10;23.50;;;;;;5061599;28;19988;-72
2022/03/04 12:07:42;;;;;;;;;;;24.10;23.90;;;;;;5061679;28;19986;-72
2022/03/04 12:10:09;;;;;;;;;;;24.30;23.20;;;;;;5027216;28;19925;-76
2022/03/04 12:12:35;;;;;;;;;;;25.20;23.80;;;;;;5061045;28;20102;-73
2022/03/04 12:15:16;;;;;;;;;;;26.10;23.90;;;;;;5044098;28;19951;-72
2022/03/04 12:17:59;;;;;;;;;;;26.50;22.40;;;;;;5061712;28;20000;-72
2022/03/04 12:20:40;;;;;;;;;;;27.50;21.10;;;;;;5044032;28;19963;-72
2022/03/04 12:23:19;;;;;;;;;;;26.70;21.80;;;;;;5062557;28;19908;-72
2022/03/04 12:25:54;;;;;;;;;;;27.50;21.60;;;;;;5065836;28;19909;-72
2022/03/04 12:28:24;;;;;;;;;;;27.50;21.00;;;;;;5065907;28;19987;-72
2022/03/04 12:31:01;;;;;;;;;;;24.80;22.10;;;;;;5065650;28;19913;-71
2022/03/04 12:33:35;;;;;;;;;;;21.60;24.10;;;;;;5065711;28;20000;-71
2022/03/04 12:36:01;;;;;;;;;;;19.40;25.70;;;;;;5047853;28;19909;-71
2022/03/04 12:38:27;;;;;;;;;;;18.70;26.80;;;;;;5065156;28;19920;-71
2022/03/04 12:40:59;;;;;;;;;;;20.10;26.60;;;;;;5065206;28;19917;-71
2022/03/04 12:43:25;;;;;;;;;;;22.00;24.70;;;;;;5065357;28;19910;-71
2022/03/04 12:45:51;;;;;;;;;;;22.20;24.00;;;;;;5047281;28;19974;-72
2022/03/04 12:48:18;;;;;;;;;;;20.90;24.50;;;;;;5065167;28;19909;-71
2022/03/04 12:50:44;;;;;;;;;;;18.90;26.20;;;;;;5046859;28;19913;-71
2022/03/04 12:53:23;;;;;;;;;;;17.50;27.40;;;;;;5047158;28;19920;-71
2022/03/04 12:55:52;;;;;;;;;;;15.90;28.80;;;;;;5064824;28;19916;-70
2022/03/04 12:58:48;;;;;;;;;;;14.50;30.70;;;;;;5047012;28;20011;-71
2022/03/04 13:01:15;;;;;;;;;;;13.50;32.10;;;;;;5046822;28;19908;-71
2022/03/04 13:03:45;;;;;;;;;;;14.00;31.30;;;;;;5047318;28;20219;-71
2022/03/04 13:06:12;;;;;;;;;;;16.80;28.70;;;;;;5064818;28;20239;-70
2022/03/04 13:08:53;;;;;;;;;;;17.80;27.10;;;;;;5064361;28;19916;-70
2022/03/04 13:11:20;;;;;;;;;;;17.00;27.40;;;;;;5064371;28;19980;-71
2022/03/04 13:13:57;;;;;;;;;;;15.80;28.60;;;;;;5046744;28;19912;-69
2022/03/04 13:16:28;;;;;;;;;;;14.50;30.00;;;;;;5030553;28;20257;-70
2022/03/04 13:18:56;;;;;;;;;;;13.30;31.40;;;;;;5064886;28;19912;-71
2022/03/04 13:21:36;;;;;;;;;;;12.10;33.30;;;;;;5046393;28;19916;-70
2022/03/04 13:24:20;;;;;;;;;;;11.50;34.50;;;;;;5026876;28;19955;-70
2022/03/04 13:27:10;;;;;;;;;;;10.80;34.90;;;;;;5071677;28;19913;-70
2022/03/04 13:29:46;;;;;;;;;;;10.40;36.00;;;;;;5067067;28;19921;-70
2022/03/04 13:32:17;;;;;;;;;;;10.30;36.40;;;;;;5062525;28;20162;-71
2022/03/04 13:34:44;;;;;;;;;;;13.10;34.00;;;;;;5079257;28;20008;-70
2022/03/04 13:37:11;;;;;;;;;;;17.30;28.00;;;;;;5062827;28;19916;-71
2022/03/04 13:39:42;;;;;;;;;;;20.20;25.50;;;;;;5062884;28;20200;-70
2022/03/04 13:42:18;;;;;;;;;;;21.70;24.00;;;;;;5046456;28;19954;-71
2022/03/04 13:45:00;;;;;;;;;;;19.40;24.90;;;;;;5079621;28;19947;-71
2022/03/04 13:47:53;;;;;;;;;;;17.10;26.50;;;;;;5077968;28;19921;-70
2022/03/04 13:50:28;;;;;;;;;;;15.40;28.00;;;;;;5076738;28;19916;-70
2022/03/04 13:52:59;;;;;;;;;;;13.80;29.50;;;;;;5063714;28;19909;-70
2022/03/04 13:55:37;;;;;;;;;;;13.00;30.60;;;;;;5062457;28;19909;-70
2022/03/04 13:58:26;;;;;;;;;;;13.20;30.80;;;;;;5063516;28;19924;-71
2022/03/04 14:00:53;;;;;;;;;;;15.40;28.60;;;;;;5048215;28;19909;-70
2022/03/04 14:03:23;;;;;;;;;;;15.50;27.40;;;;;;5063562;28;19913;-71
2022/03/04 14:06:03;;;;;;;;;;;16.10;27.30;;;;;;5063539;28;19909;-71
2022/03/04 14:08:29;;;;;;;;;;;15.50;27.70;;;;;;5045376;28;20064;-70
2022/03/04 14:10:54;;;;;;;;;;;14.20;28.70;;;;;;5045080;28;19932;-70
2022/03/04 14:13:21;;;;;;;;;;;13.50;29.80;;;;;;5045830;28;19908;-70
2022/03/04 14:15:49;;;;;;;;;;;12.30;31.30;;;;;;5045699;28;20123;-71
2022/03/04 14:18:16;;;;;;;;;;;11.50;32.70;;;;;;5063185;28;19909;-71
2022/03/04 14:20:45;;;;;;;;;;;11.20;33.40;;;;;;5062947;28;19908;-71
2022/03/04 14:23:11;;;;;;;;;;;10.70;34.00;;;;;;5045528;28;19917;-71
2022/03/04 14:25:37;;;;;;;;;;;10.40;34.80;;;;;;5062944;28;19909;-71